St. Phillip — WD14731 — position and weather

sailwx.info

Track history (hours):
 
Tides and Currents Weather Stations Pressure Air Temp Water Temp Dewpoint Dewpoint Depression Visibility Wind Speed Wind Dir Waves Ship Positions

St. Phillip

Last reported at 2017-Nov-19 23:29 UTC. Time now 2017-Nov-20 02:09 UTC.
Position N 29°47' W 095°05'.

Length 23 m; draft 2.7 m.

Type: . MMSI: 367701380.

Date/timePositionNaut miles runAvg speedWind from/ knotsBaromVisibWave heightAir tempDewpointWater temp
2017-Nov-19 23:29N 29°47' W 095°05'1 1.0
2017-Nov-19 22:07N 29°46' W 095°06'0 0.1
2017-Nov-19 21:52N 29°46' W 095°06'0 0.4
2017-Nov-19 21:24N 29°46' W 095°06'1 1.3
2017-Nov-19 20:32N 29°46' W 095°05'1 0.0
2017-Nov-19 05:37N 29°47' W 095°05'3 7.6
2017-Nov-19 05:17N 29°45' W 095°06'3 1.0
2017-Nov-19 02:46N 29°47' W 095°05'1 0.4
2017-Nov-19 00:17N 29°46' W 095°05'1 4.2
2017-Nov-19 00:00N 29°45' W 095°04'2 4.3
2017-Nov-18 23:29N 29°44' W 095°02'2 4.2
2017-Nov-18 22:58N 29°42' W 095°00'2 4.7
2017-Nov-18 22:30N 29°40' W 094°59'2 4.8
2017-Nov-18 22:00N 29°38' W 094°58'4 4.7
2017-Nov-18 21:11N 29°35' W 094°56'1 4.8
2017-Nov-18 21:00N 29°34' W 094°55'2 4.8
2017-Nov-18 20:30N 29°32' W 094°54'54 1.4
2017-Nov-17 05:52N 29°52' W 093°56'12 5.6
2017-Nov-17 03:42N 30°01' W 093°46'2 6.5
2017-Nov-17 03:20N 30°03' W 093°44'3 5.9
2017-Nov-17 02:54N 30°04' W 093°41'2 4.9
2017-Nov-17 02:30N 30°04' W 093°39'2 4.8
2017-Nov-17 02:00N 30°04' W 093°36'2 4.8
2017-Nov-17 01:30N 30°04' W 093°33'2 4.8
2017-Nov-17 01:00N 30°04' W 093°31'2 4.8
2017-Nov-17 00:30N 30°04' W 093°28'2 4.9
2017-Nov-17 00:01N 30°04' W 093°25'3 5.0
2017-Nov-16 23:30N 30°04' W 093°22'2 3.9
2017-Nov-16 23:00N 30°05' W 093°20'2 3.7
2017-Nov-16 22:30N 30°06' W 093°19'1 2.9
2017-Nov-16 22:00N 30°05' W 093°18'0 0.7
2017-Nov-16 21:30N 30°05' W 093°17'1 1.9
2017-Nov-16 21:01N 30°04' W 093°16'1 2.8
2017-Nov-16 20:31N 30°03' W 093°16'2 3.1
2017-Nov-16 20:00N 30°02' W 093°15'2 4.2
2017-Nov-16 19:31N 30°00' W 093°13'2 4.6
2017-Nov-16 19:01N 29°58' W 093°12'2 4.7
2017-Nov-16 18:31N 29°57' W 093°10'2 4.3
2017-Nov-16 18:00N 29°56' W 093°08'2 4.4
2017-Nov-16 17:29N 29°56' W 093°05'17 1.5
2017-Nov-16 06:09N 29°58' W 092°46'0 0.1
2017-Nov-16 05:58N 29°58' W 092°46'6 2.1
2017-Nov-16 03:20N 29°56' W 092°40'9 3.8
2017-Nov-16 01:06N 29°54' W 092°30'0 4.2
2017-Nov-16 01:00N 29°54' W 092°29'2 4.4
2017-Nov-16 00:31N 29°54' W 092°27'2 4.4
2017-Nov-16 00:00N 29°53' W 092°24'2 4.2
2017-Nov-15 23:30N 29°52' W 092°22'2 4.1
2017-Nov-15 23:01N 29°51' W 092°21'2 4.1
2017-Nov-15 22:30N 29°50' W 092°18'2 4.3
2017-Nov-15 22:01N 29°49' W 092°17'2 4.8
2017-Nov-15 21:30N 29°48' W 092°14'2 3.4
2017-Nov-15 21:01N 29°47' W 092°12'2 4.0
2017-Nov-15 20:31N 29°47' W 092°10'2 4.9
2017-Nov-15 20:01N 29°47' W 092°07'2 4.8
2017-Nov-15 19:31N 29°48' W 092°05'2 4.7
2017-Nov-15 19:00N 29°49' W 092°02'2 4.6
2017-Nov-15 18:30N 29°50' W 091°60'  
2017-Nov-11 18:01N 29°51' W 091°56'0 4.7
2017-Nov-11 17:59N 29°51' W 091°57'2 4.6
2017-Nov-11 17:29N 29°50' W 091°59'2 4.7
2017-Nov-11 16:59N 29°49' W 092°02'2 4.7
2017-Nov-11 16:29N 29°48' W 092°04'67 2.8
2017-Nov-10 16:30N 30°06' W 093°18'1 1.2
2017-Nov-10 16:00N 30°06' W 093°19'1 2.9
2017-Nov-10 15:30N 30°05' W 093°20'2 3.7
2017-Nov-10 15:00N 30°04' W 093°22'2 4.1
2017-Nov-10 14:30N 30°04' W 093°24'2 4.4
2017-Nov-10 14:01N 30°04' W 093°27'2 4.4
2017-Nov-10 13:30N 30°04' W 093°29'2 3.9
2017-Nov-10 13:00N 30°04' W 093°31'2 4.3
2017-Nov-10 12:30N 30°04' W 093°34'  
Track history (hours):
 
Tides and Currents Weather Stations Pressure Air Temp Water Temp Dewpoint Dewpoint Depression Visibility Wind Speed Wind Dir Waves Ship Positions

St. Phillip

Last reported at 2017-Nov-19 23:29 UTC. Time now 2017-Nov-20 02:09 UTC.
Position N 29°47' W 095°05'.

Length 23 m; draft 2.7 m.

Type: . MMSI: 367701380.

Date/timePositionNaut miles runAvg speedWind from/ knotsBaromVisibWave heightAir tempDewpointWater temp
2017-Nov-19 23:29N 29°47' W 095°05'1 1.0
2017-Nov-19 22:07N 29°46' W 095°06'0 0.1
2017-Nov-19 21:52N 29°46' W 095°06'0 0.4
2017-Nov-19 21:24N 29°46' W 095°06'1 1.3
2017-Nov-19 20:32N 29°46' W 095°05'1 0.0
2017-Nov-19 05:37N 29°47' W 095°05'3 7.6
2017-Nov-19 05:17N 29°45' W 095°06'3 1.0
2017-Nov-19 02:46N 29°47' W 095°05'1 0.4
2017-Nov-19 00:17N 29°46' W 095°05'1 4.2
2017-Nov-19 00:00N 29°45' W 095°04'2 4.3
2017-Nov-18 23:29N 29°44' W 095°02'2 4.2
2017-Nov-18 22:58N 29°42' W 095°00'2 4.7
2017-Nov-18 22:30N 29°40' W 094°59'2 4.8
2017-Nov-18 22:00N 29°38' W 094°58'4 4.7
2017-Nov-18 21:11N 29°35' W 094°56'1 4.8
2017-Nov-18 21:00N 29°34' W 094°55'2 4.8
2017-Nov-18 20:30N 29°32' W 094°54'54 1.4
2017-Nov-17 05:52N 29°52' W 093°56'12 5.6
2017-Nov-17 03:42N 30°01' W 093°46'2 6.5
2017-Nov-17 03:20N 30°03' W 093°44'3 5.9
2017-Nov-17 02:54N 30°04' W 093°41'2 4.9
2017-Nov-17 02:30N 30°04' W 093°39'2 4.8
2017-Nov-17 02:00N 30°04' W 093°36'2 4.8
2017-Nov-17 01:30N 30°04' W 093°33'2 4.8
2017-Nov-17 01:00N 30°04' W 093°31'2 4.8
2017-Nov-17 00:30N 30°04' W 093°28'2 4.9
2017-Nov-17 00:01N 30°04' W 093°25'3 5.0
2017-Nov-16 23:30N 30°04' W 093°22'2 3.9
2017-Nov-16 23:00N 30°05' W 093°20'2 3.7
2017-Nov-16 22:30N 30°06' W 093°19'1 2.9
2017-Nov-16 22:00N 30°05' W 093°18'0 0.7
2017-Nov-16 21:30N 30°05' W 093°17'1 1.9
2017-Nov-16 21:01N 30°04' W 093°16'1 2.8
2017-Nov-16 20:31N 30°03' W 093°16'2 3.1
2017-Nov-16 20:00N 30°02' W 093°15'2 4.2
2017-Nov-16 19:31N 30°00' W 093°13'2 4.6
2017-Nov-16 19:01N 29°58' W 093°12'2 4.7
2017-Nov-16 18:31N 29°57' W 093°10'2 4.3
2017-Nov-16 18:00N 29°56' W 093°08'2 4.4
2017-Nov-16 17:29N 29°56' W 093°05'17 1.5
2017-Nov-16 06:09N 29°58' W 092°46'0 0.1
2017-Nov-16 05:58N 29°58' W 092°46'6 2.1
2017-Nov-16 03:20N 29°56' W 092°40'9 3.8
2017-Nov-16 01:06N 29°54' W 092°30'0 4.2
2017-Nov-16 01:00N 29°54' W 092°29'2 4.4
2017-Nov-16 00:31N 29°54' W 092°27'2 4.4
2017-Nov-16 00:00N 29°53' W 092°24'2 4.2
2017-Nov-15 23:30N 29°52' W 092°22'2 4.1
2017-Nov-15 23:01N 29°51' W 092°21'2 4.1
2017-Nov-15 22:30N 29°50' W 092°18'2 4.3
2017-Nov-15 22:01N 29°49' W 092°17'2 4.8
2017-Nov-15 21:30N 29°48' W 092°14'2 3.4
2017-Nov-15 21:01N 29°47' W 092°12'2 4.0
2017-Nov-15 20:31N 29°47' W 092°10'2 4.9
2017-Nov-15 20:01N 29°47' W 092°07'2 4.8
2017-Nov-15 19:31N 29°48' W 092°05'2 4.7
2017-Nov-15 19:00N 29°49' W 092°02'2 4.6
2017-Nov-15 18:30N 29°50' W 091°60'  
2017-Nov-11 18:01N 29°51' W 091°56'0 4.7
2017-Nov-11 17:59N 29°51' W 091°57'2 4.6
2017-Nov-11 17:29N 29°50' W 091°59'2 4.7
2017-Nov-11 16:59N 29°49' W 092°02'2 4.7
2017-Nov-11 16:29N 29°48' W 092°04'67 2.8
2017-Nov-10 16:30N 30°06' W 093°18'1 1.2
2017-Nov-10 16:00N 30°06' W 093°19'1 2.9
2017-Nov-10 15:30N 30°05' W 093°20'2 3.7
2017-Nov-10 15:00N 30°04' W 093°22'2 4.1
2017-Nov-10 14:30N 30°04' W 093°24'2 4.4
2017-Nov-10 14:01N 30°04' W 093°27'2 4.4
2017-Nov-10 13:30N 30°04' W 093°29'2 3.9
2017-Nov-10 13:00N 30°04' W 093°31'2 4.3
2017-Nov-10 12:30N 30°04' W 093°34'  

Dump ship's entire track history